createdAt,value
2023-03-25T00:04:05.000Z,24.83
2023-03-25T00:09:20.940Z,27.25
2023-03-25T00:14:36.822Z,25.17
2023-03-25T00:19:52.685Z,26.38
2023-03-25T00:25:11.216Z,27.55
2023-03-25T00:30:27.100Z,23.80
2023-03-25T00:35:46.123Z,25.55
2023-03-25T00:41:17.799Z,25.90
2023-03-25T00:46:34.542Z,27.52
2023-03-25T00:51:53.013Z,23.20
2023-03-25T00:57:09.859Z,20.90
2023-03-25T01:02:25.864Z,21.00
2023-03-25T01:07:42.319Z,15.98
2023-03-25T01:12:57.937Z,9.60
2023-03-25T01:18:13.305Z,11.25
2023-03-25T01:23:29.285Z,13.52
2023-03-25T01:28:45.997Z,9.43
2023-03-25T01:34:02.006Z,7.28
2023-03-25T01:39:19.258Z,8.48
2023-03-25T01:44:34.931Z,4.82
2023-03-25T01:49:50.862Z,3.67
2023-03-25T01:55:08.084Z,4.13
2023-03-25T02:00:24.262Z,3.60
2023-03-25T02:05:59.066Z,2.50
2023-03-25T02:11:14.738Z,3.28
2023-03-25T02:16:45.655Z,4.10
2023-03-25T02:22:38.071Z,1.57
2023-03-25T02:28:03.714Z,2.78
2023-03-25T02:33:25.594Z,3.15
2023-03-25T02:39:05.962Z,1.17
2023-03-25T02:44:39.814Z,1.17
2023-03-25T02:50:07.916Z,1.63
2023-03-25T02:55:25.752Z,0.70
2023-03-25T03:00:43.317Z,1.60
2023-03-25T03:06:04.916Z,1.65
2023-03-25T03:11:29.395Z,1.17
2023-03-25T03:17:38.591Z,1.27
2023-03-25T03:23:15.018Z,5.60
2023-03-25T03:29:06.162Z,1.48
2023-03-25T03:34:34.789Z,1.98
2023-03-25T03:39:53.758Z,0.40
2023-03-25T03:45:25.678Z,0.82
2023-03-25T03:50:53.260Z,0.40
2023-03-25T03:56:26.012Z,0.50
2023-03-25T04:01:54.307Z,0.75
2023-03-25T04:07:10.994Z,0.70
2023-03-25T04:12:32.733Z,1.25
2023-03-25T04:17:48.744Z,0.45
2023-03-25T04:23:05.410Z,0.40
2023-03-25T04:28:21.958Z,0.55
2023-03-25T04:33:37.571Z,0.40
2023-03-25T04:38:53.326Z,0.52
2023-03-25T04:44:09.277Z,1.08
2023-03-25T04:49:25.333Z,0.85
2023-03-25T04:54:41.416Z,0.65
2023-03-25T04:59:57.416Z,2.00
2023-03-25T05:05:18.793Z,3.05
2023-03-25T05:10:36.642Z,1.35
2023-03-25T05:15:52.504Z,2.63
2023-03-25T05:21:08.736Z,0.60
2023-03-25T05:26:34.391Z,0.70
2023-03-25T05:31:50.074Z,1.13
2023-03-25T05:37:06.092Z,1.05
2023-03-25T05:42:23.247Z,1.17
2023-03-25T05:47:40.472Z,0.75
2023-03-25T05:52:57.819Z,2.90
2023-03-25T05:58:13.523Z,0.95
2023-03-25T06:03:29.568Z,2.63
2023-03-25T06:08:47.243Z,0.50
2023-03-25T06:14:02.947Z,0.93
2023-03-25T06:19:18.919Z,3.63
2023-03-25T06:24:35.741Z,1.58
2023-03-25T06:29:51.066Z,1.75
2023-03-25T06:35:09.676Z,2.33
2023-03-25T06:40:26.206Z,5.07
2023-03-25T06:45:42.611Z,1.20
2023-03-25T06:50:58.100Z,4.32
2023-03-25T06:56:14.071Z,1.10
2023-03-25T07:01:29.529Z,2.10
2023-03-25T07:06:45.325Z,2.50
2023-03-25T07:12:02.166Z,1.30
2023-03-25T07:17:17.865Z,5.60
2023-03-25T07:22:33.960Z,2.67
2023-03-25T07:27:49.688Z,4.47
2023-03-25T07:33:06.338Z,1.48
2023-03-25T07:38:22.029Z,3.47
2023-03-25T07:43:38.967Z,5.63
2023-03-25T07:48:55.271Z,2.63
2023-03-25T07:54:11.562Z,4.30
2023-03-25T07:59:29.271Z,3.17
2023-03-25T08:04:46.680Z,3.85
2023-03-25T08:10:02.889Z,8.00
2023-03-25T08:15:18.699Z,2.25
2023-03-25T08:20:36.193Z,2.67
2023-03-25T08:25:53.817Z,2.05
2023-03-25T08:31:09.841Z,3.17
2023-03-25T08:36:25.972Z,2.38
2023-03-25T08:41:41.834Z,4.22
2023-03-25T08:46:57.864Z,5.15
2023-03-25T08:52:18.044Z,2.90
2023-03-25T08:57:36.604Z,4.15
2023-03-25T09:02:52.725Z,1.55
2023-03-25T09:08:09.892Z,2.42
2023-03-25T09:13:26.347Z,1.80
2023-03-25T09:18:42.313Z,3.05
2023-03-25T09:23:58.264Z,5.88
2023-03-25T09:29:14.289Z,2.45
2023-03-25T09:34:31.276Z,1.40
2023-03-25T09:39:46.900Z,4.88
2023-03-25T09:45:12.011Z,8.65
2023-03-25T09:50:32.376Z,5.35
2023-03-25T09:55:49.475Z,2.45
2023-03-25T10:01:28.456Z,3.38
2023-03-25T10:07:13.735Z,6.93
2023-03-25T10:12:35.643Z,1.33
2023-03-25T10:18:05.166Z,5.05
2023-03-25T10:23:32.696Z,3.90
2023-03-25T10:28:58.411Z,1.58
2023-03-25T10:34:20.145Z,5.68
2023-03-25T10:39:42.874Z,2.10
2023-03-25T10:44:58.775Z,4.63
2023-03-25T10:50:17.444Z,4.05
2023-03-25T10:55:38.071Z,1.70
2023-03-25T11:00:53.778Z,2.10
2023-03-25T11:06:24.477Z,5.38
2023-03-25T11:11:41.934Z,3.07
2023-03-25T11:17:04.231Z,2.58
2023-03-25T11:22:25.375Z,1.48
2023-03-25T11:27:48.246Z,1.38
2023-03-25T11:33:13.403Z,1.92
2023-03-25T11:38:34.858Z,5.03
2023-03-25T11:43:51.181Z,0.93
2023-03-25T11:49:19.738Z,1.98
2023-03-25T11:54:37.876Z,0.50
2023-03-25T12:00:13.145Z,0.82
2023-03-25T12:05:29.383Z,0.40
2023-03-25T12:11:16.937Z,1.00
2023-03-25T12:16:45.008Z,0.47
2023-03-25T12:22:03.798Z,5.38
2023-03-25T12:27:25.429Z,0.60
2023-03-25T12:33:22.246Z,0.60
2023-03-25T12:38:47.070Z,0.82
2023-03-25T12:44:29.795Z,0.50
2023-03-25T12:49:48.658Z,1.05
2023-03-25T12:55:32.363Z,0.50
2023-03-25T13:01:04.203Z,0.50
2023-03-25T13:06:23.150Z,0.50
2023-03-25T13:11:46.039Z,1.20
2023-03-25T13:17:07.692Z,0.50
2023-03-25T13:22:29.533Z,1.15
2023-03-25T13:27:46.957Z,1.38
2023-03-25T13:33:45.236Z,0.70
2023-03-25T13:39:16.536Z,0.70
2023-03-25T13:50:14.789Z,1.10
2023-03-25T13:55:43.201Z,1.17
2023-03-25T14:01:28.925Z,1.27
2023-03-25T14:07:12.600Z,9.93
2023-03-25T14:12:42.967Z,2.03
2023-03-25T14:18:00.409Z,2.13
2023-03-25T14:23:23.129Z,2.20
2023-03-25T14:28:45.278Z,0.70
2023-03-25T14:34:04.124Z,2.60
2023-03-25T14:39:40.384Z,4.30
2023-03-25T14:45:32.474Z,0.68
2023-03-25T14:50:54.461Z,0.50
2023-03-25T14:56:18.811Z,1.85
2023-03-25T15:01:37.366Z,0.40
2023-03-25T15:06:53.626Z,1.15
2023-03-25T15:12:16.213Z,2.88
2023-03-25T15:17:49.502Z,0.40
2023-03-25T15:23:31.920Z,0.90
2023-03-25T15:29:13.027Z,1.83
2023-03-25T15:35:03.876Z,2.53
2023-03-25T15:40:46.578Z,2.40
2023-03-25T15:46:27.414Z,1.88
2023-03-25T15:51:54.753Z,1.02
2023-03-25T15:57:26.701Z,1.17
2023-03-25T16:03:02.145Z,0.30
2023-03-25T16:08:36.905Z,1.05
2023-03-25T16:14:13.864Z,2.25
2023-03-25T16:19:49.686Z,0.47
2023-03-25T16:25:14.647Z,0.50
2023-03-25T16:30:33.947Z,0.75
2023-03-25T16:36:00.212Z,0.55
2023-03-25T16:41:16.767Z,0.60
2023-03-25T16:46:33.317Z,0.68
2023-03-25T16:51:52.168Z,0.85
2023-03-25T16:57:09.275Z,1.77
2023-03-25T17:02:42.074Z,0.55
2023-03-25T17:07:59.808Z,0.93
2023-03-25T17:13:24.792Z,2.63
2023-03-25T17:18:41.057Z,0.70
2023-03-25T17:24:02.869Z,1.92
2023-03-25T17:29:18.649Z,1.25
2023-03-25T17:34:42.840Z,1.35
2023-03-25T17:40:06.964Z,1.77
2023-03-25T17:45:24.623Z,2.95
2023-03-25T17:50:53.257Z,1.90
2023-03-25T17:56:13.118Z,3.40
2023-03-25T18:01:31.119Z,2.38
2023-03-25T18:06:47.864Z,4.97
2023-03-25T18:12:03.746Z,3.58
2023-03-25T18:17:19.894Z,3.42
2023-03-25T18:22:37.018Z,4.47
2023-03-25T18:27:55.153Z,16.48
2023-03-25T18:33:11.385Z,21.00
2023-03-25T18:38:28.061Z,5.82
2023-03-25T18:43:44.408Z,6.07
2023-03-25T18:49:02.905Z,3.75
2023-03-25T18:54:18.790Z,8.00
2023-03-25T18:59:34.577Z,5.90
2023-03-25T19:05:00.050Z,4.15
2023-03-25T19:10:26.068Z,3.63
2023-03-25T19:15:43.325Z,4.53
2023-03-25T19:21:00.798Z,10.18
2023-03-25T19:26:16.576Z,5.95
2023-03-25T19:31:32.435Z,8.40
2023-03-25T19:36:48.383Z,8.55
2023-03-25T19:42:04.548Z,10.10
2023-03-25T19:47:20.543Z,10.07
2023-03-25T19:52:36.587Z,7.63
2023-03-25T19:57:53.292Z,3.88
2023-03-25T20:03:08.876Z,11.05
2023-03-25T20:08:26.013Z,7.53
2023-03-25T20:13:42.338Z,9.90
2023-03-25T20:18:58.216Z,14.52
2023-03-25T20:24:14.028Z,8.82
2023-03-25T20:29:30.140Z,11.65
2023-03-25T20:34:46.188Z,12.15
2023-03-25T20:40:01.988Z,8.07
2023-03-25T20:45:20.242Z,7.40
2023-03-25T20:50:36.348Z,17.25
2023-03-25T20:55:52.099Z,8.32
2023-03-25T21:01:08.326Z,9.27
2023-03-25T21:06:27.960Z,5.57
2023-03-25T21:11:44.595Z,8.23
2023-03-25T21:17:00.693Z,3.60
2023-03-25T21:22:16.805Z,4.70
2023-03-25T21:27:39.472Z,7.05
2023-03-25T21:32:56.579Z,10.25
2023-03-25T21:38:12.485Z,13.30
2023-03-25T21:43:27.964Z,7.53
2023-03-25T21:48:45.224Z,7.13
2023-03-25T21:54:01.151Z,8.38
2023-03-25T21:59:17.086Z,11.65
2023-03-25T22:04:34.074Z,11.45
2023-03-25T22:09:50.148Z,7.97
2023-03-25T22:15:07.364Z,5.47
2023-03-25T22:20:23.901Z,6.15
2023-03-25T22:25:39.782Z,5.05
2023-03-25T22:30:55.398Z,5.78
2023-03-25T22:36:14.558Z,3.17
2023-03-25T22:41:30.922Z,4.03
2023-03-25T22:46:48.721Z,11.57
2023-03-25T22:52:06.040Z,4.47
2023-03-25T22:57:22.003Z,5.60
2023-03-25T23:02:38.041Z,4.13
2023-03-25T23:07:53.956Z,3.90
2023-03-25T23:13:09.976Z,3.30
2023-03-25T23:18:25.837Z,17.40
2023-03-25T23:23:52.677Z,4.45
2023-03-25T23:29:11.846Z,5.28
2023-03-25T23:34:27.556Z,5.13
2023-03-25T23:39:46.510Z,5.20
2023-03-25T23:45:02.426Z,4.78
2023-03-25T23:50:18.604Z,5.88
2023-03-25T23:55:35.334Z,6.57
